Bean Station, TN (37708)

8:19 AM EDT on July 24, 2014 (GMT -0400)
KTNMORRI6 (KTNMORRI6) Elev 1283 ft | 36.21 °N, 83.37 °W | Change Station
Active Advisory: Special Statement

Current weather conditions updated 2 minutes ago

Partly Cloudy
Partly Cloudy
72.3 °F
Feels Like 72.3 °F
N
0.0
Wind Variable Wind from West

Today is forecast to be Cooler than yesterday. Thunderstorms.

Today
High -- | Low -- °F
--% Chance of Precip.
Yesterday
High -- | Low -- °F
Precip. -- in
6:33 AM 8:45 PM
Waning Crescent, 5% visible
Pressure 30.01 in
Visibility 9.0 miles
Clouds Few 800 ft
Dew Point 70 °F
Humidity 94%
Rainfall 0.00 in
Snow Depth Not available.
UV 1 out of 12
Pollen .60 out of 12
Ozone Good
PM2.5 Good
Flu Activity Not available.
METAR K0VG 241155Z AUTO 00000KT 9SM FEW008 20/20 A3001 RMK AO2

More Conditions Fewer Conditions

Pressure 30.01 in
Visibility 9.0 miles
Clouds Few 800 ft
Dew Point 70 °F
Humidity 94%
Rainfall 0.00 in
Snow Depth Not available.
UV 1 out of 12
Pollen .60 out of 12
Ozone Good
PM2.5 Good
Flu Activity Not available.
METAR K0VG 241155Z AUTO 00000KT 9SM FEW008 20/20 A3001 RMK AO2

More Conditions Fewer Conditions

10-Day Weather Forecast

Almanac

Astronomy

Jul. 24, 2014 Rise Set
Actual Time 6:33 AM EDT 8:45 PM EDT
Civil Twilight 6:04 AM EDT 9:14 PM EDT
Nautical Twilight 5:29 AM EDT 9:49 PM EDT
Astronomical Twilight 4:50 AM EDT 10:28 PM EDT
Moon 4:40 AM EDT 7:00 PM EDT
Length of Visible Light 15h 09m
Length of Day
14h 11m
Tomorrow will be 1m 31s shorter.
Waning Crescent, 5% of the Moon is Illuminated
Today
Waning Crescent
Jul 26
New
Aug 3
First Quarter
Aug 10
Full
Aug 17
Last Quarter

Today's Extremes

State Highs State Lows

Community

WunderPhotos

Upload Photos

1,736,986 photos uploaded!

Nearby

Air Quality

  Air Quality AQ Index Pollutant
Yesterday Good
PM2.5
Yesterday Good
OZONE
Current Good
OZONE
Current Good
PM2.5
Thursday Moderate
PM2.5
Thursday Good
OZONE
Friday Good
PM2.5
Friday Good
OZONE

Snow Depth

Station Depth Elevation
No new snow has been reported.

Earthquake Activity

City Distance Mag. Time & Date
No recent earthquake activity has been reported nearby.
Minimum magnitude displayed is 2.5.

Coastal Water Temperatures

Place Temperature
No Stations Reporting

Nearby Weather Stations

Station Location Temp. Dew Point Humidity Wind Precip. Elev Updated Type
KTNMORRI6, Morristown, TN 72.3 °F 70 °F 94% West  at  0.0 mph - / hr 1283 ft 8:17 AM EDT Normal
Brentwood Subdivision, Morristown, TN 71.3 °F 69 °F 93% North  at  0.0 mph 0.00 in / hr 1411 ft 8:19 AM EDT Rapid Fire
Jefferson City, TN 70.7 °F 70 °F 99% SW  at  0.0 mph 0.00 in / hr 1205 ft 8:19 AM EDT Normal
Washburn TN US, Washburn, TN 69.3 °F 64 °F 85% ESE  at  0.0 mph 0.00 in / hr 1450 ft 8:15 AM EDT Normal
White Rocks View, Rose Hill, VA 67.8 °F 68 °F 99% ENE  at  0.0 mph 0.00 in / hr 1470 ft 8:19 AM EDT Rapid Fire
Rose Hill, Rose Hill, VA 68.0 °F 68 °F 99% NW  at  0.0 mph 0.01 in / hr 1860 ft 8:16 AM EDT Normal

Show More Stations Show Fewer Stations